sensor_id;sensor_type;location;lat;lon;timestamp;temperature;humidity
46366;DHT22;32073;49.166;8.076;2022-10-16T00:02:36;20.00;73.40
46366;DHT22;32073;49.166;8.076;2022-10-16T00:06:37;19.90;73.30
46366;DHT22;32073;49.166;8.076;2022-10-16T00:10:38;19.90;73.20
46366;DHT22;32073;49.166;8.076;2022-10-16T00:14:39;19.90;73.20
46366;DHT22;32073;49.166;8.076;2022-10-16T00:18:42;19.90;73.10
46366;DHT22;32073;49.166;8.076;2022-10-16T00:22:43;19.90;73.00
46366;DHT22;32073;49.166;8.076;2022-10-16T00:26:44;19.90;73.00
46366;DHT22;32073;49.166;8.076;2022-10-16T00:30:44;19.80;72.90
46366;DHT22;32073;49.166;8.076;2022-10-16T00:34:45;19.80;72.80
46366;DHT22;32073;49.166;8.076;2022-10-16T00:38:46;19.80;72.80
46366;DHT22;32073;49.166;8.076;2022-10-16T00:42:47;19.80;72.90
46366;DHT22;32073;49.166;8.076;2022-10-16T00:46:48;19.70;72.80
46366;DHT22;32073;49.166;8.076;2022-10-16T00:50:50;19.70;73.50
46366;DHT22;32073;49.166;8.076;2022-10-16T00:54:52;19.70;72.90
46366;DHT22;32073;49.166;8.076;2022-10-16T00:58:54;19.70;73.10
46366;DHT22;32073;49.166;8.076;2022-10-16T01:03:00;19.60;73.00
46366;DHT22;32073;49.166;8.076;2022-10-16T01:07:07;19.60;73.10
46366;DHT22;32073;49.166;8.076;2022-10-16T01:16:11;19.60;73.10
46366;DHT22;32073;49.166;8.076;2022-10-16T01:20:30;19.60;73.00
46366;DHT22;32073;49.166;8.076;2022-10-16T01:24:41;19.50;73.10
46366;DHT22;32073;49.166;8.076;2022-10-16T01:28:55;19.50;73.10
46366;DHT22;32073;49.166;8.076;2022-10-16T01:33:07;19.50;73.10
46366;DHT22;32073;49.166;8.076;2022-10-16T01:37:16;19.50;73.10
46366;DHT22;32073;49.166;8.076;2022-10-16T01:41:31;19.50;73.10
46366;DHT22;32073;49.166;8.076;2022-10-16T01:45:34;19.50;73.20
46366;DHT22;32073;49.166;8.076;2022-10-16T01:49:38;19.40;73.10
46366;DHT22;32073;49.166;8.076;2022-10-16T01:53:44;19.40;73.20
46366;DHT22;32073;49.166;8.076;2022-10-16T01:57:48;19.40;73.20
46366;DHT22;32073;49.166;8.076;2022-10-16T02:01:53;19.40;73.20
46366;DHT22;32073;49.166;8.076;2022-10-16T02:05:58;19.40;73.20
46366;DHT22;32073;49.166;8.076;2022-10-16T02:10:00;19.40;73.30
46366;DHT22;32073;49.166;8.076;2022-10-16T02:14:05;19.40;73.30
46366;DHT22;32073;49.166;8.076;2022-10-16T02:18:07;19.40;73.40
46366;DHT22;32073;49.166;8.076;2022-10-16T02:22:14;19.30;73.30
46366;DHT22;32073;49.166;8.076;2022-10-16T02:26:26;19.40;73.40
46366;DHT22;32073;49.166;8.076;2022-10-16T02:30:39;19.40;73.50
46366;DHT22;32073;49.166;8.076;2022-10-16T02:34:44;19.40;73.50
46366;DHT22;32073;49.166;8.076;2022-10-16T02:38:45;19.40;73.50
46366;DHT22;32073;49.166;8.076;2022-10-16T02:42:50;19.40;73.50
46366;DHT22;32073;49.166;8.076;2022-10-16T02:46:52;19.40;73.50
46366;DHT22;32073;49.166;8.076;2022-10-16T02:50:52;19.40;73.50
46366;DHT22;32073;49.166;8.076;2022-10-16T02:54:53;19.50;73.60
46366;DHT22;32073;49.166;8.076;2022-10-16T02:58:54;19.50;73.60
46366;DHT22;32073;49.166;8.076;2022-10-16T03:02:54;19.50;73.60
46366;DHT22;32073;49.166;8.076;2022-10-16T03:06:55;19.50;73.60
46366;DHT22;32073;49.166;8.076;2022-10-16T03:10:55;19.50;73.60
46366;DHT22;32073;49.166;8.076;2022-10-16T03:14:57;19.50;73.60
46366;DHT22;32073;49.166;8.076;2022-10-16T03:18:58;19.60;73.60
46366;DHT22;32073;49.166;8.076;2022-10-16T03:22:58;19.60;73.60
46366;DHT22;32073;49.166;8.076;2022-10-16T03:26:59;19.60;73.60
46366;DHT22;32073;49.166;8.076;2022-10-16T03:31:00;19.50;73.50
46366;DHT22;32073;49.166;8.076;2022-10-16T03:35:01;19.50;73.50
46366;DHT22;32073;49.166;8.076;2022-10-16T03:39:02;19.60;73.60
46366;DHT22;32073;49.166;8.076;2022-10-16T03:43:02;19.50;73.60
46366;DHT22;32073;49.166;8.076;2022-10-16T03:47:03;19.50;73.60
46366;DHT22;32073;49.166;8.076;2022-10-16T03:51:04;19.50;73.60
46366;DHT22;32073;49.166;8.076;2022-10-16T03:55:05;19.60;73.60
46366;DHT22;32073;49.166;8.076;2022-10-16T03:59:06;19.50;73.50
46366;DHT22;32073;49.166;8.076;2022-10-16T04:03:07;19.50;73.50
46366;DHT22;32073;49.166;8.076;2022-10-16T04:07:08;19.50;73.50
46366;DHT22;32073;49.166;8.076;2022-10-16T04:11:09;19.50;73.50
46366;DHT22;32073;49.166;8.076;2022-10-16T04:15:10;19.50;73.40
46366;DHT22;32073;49.166;8.076;2022-10-16T04:19:11;19.40;73.40
46366;DHT22;32073;49.166;8.076;2022-10-16T04:23:12;19.40;73.40
46366;DHT22;32073;49.166;8.076;2022-10-16T04:27:12;19.40;73.50
46366;DHT22;32073;49.166;8.076;2022-10-16T04:31:13;19.30;73.50
46366;DHT22;32073;49.166;8.076;2022-10-16T04:35:14;19.30;73.50
46366;DHT22;32073;49.166;8.076;2022-10-16T04:39:15;19.40;73.60
46366;DHT22;32073;49.166;8.076;2022-10-16T04:43:17;19.30;73.60
46366;DHT22;32073;49.166;8.076;2022-10-16T04:47:18;19.30;73.60
46366;DHT22;32073;49.166;8.076;2022-10-16T04:51:19;19.20;73.70
46366;DHT22;32073;49.166;8.076;2022-10-16T04:55:19;19.30;73.80
46366;DHT22;32073;49.166;8.076;2022-10-16T04:59:20;19.20;73.70
46366;DHT22;32073;49.166;8.076;2022-10-16T05:03:21;19.30;73.80
46366;DHT22;32073;49.166;8.076;2022-10-16T05:07:22;19.30;73.80
46366;DHT22;32073;49.166;8.076;2022-10-16T05:11:22;19.30;73.80
46366;DHT22;32073;49.166;8.076;2022-10-16T05:15:23;19.30;73.80
46366;DHT22;32073;49.166;8.076;2022-10-16T05:19:25;19.30;73.80
46366;DHT22;32073;49.166;8.076;2022-10-16T05:23:25;19.30;73.80
46366;DHT22;32073;49.166;8.076;2022-10-16T05:27:26;19.30;73.80
46366;DHT22;32073;49.166;8.076;2022-10-16T05:31:27;19.30;73.80
46366;DHT22;32073;49.166;8.076;2022-10-16T05:35:27;19.30;73.70
46366;DHT22;32073;49.166;8.076;2022-10-16T05:39:28;19.30;73.70
46366;DHT22;32073;49.166;8.076;2022-10-16T05:43:29;19.40;73.80
46366;DHT22;32073;49.166;8.076;2022-10-16T05:47:30;19.30;73.70
46366;DHT22;32073;49.166;8.076;2022-10-16T05:51:31;19.30;73.80
46366;DHT22;32073;49.166;8.076;2022-10-16T05:55:31;19.30;73.80
46366;DHT22;32073;49.166;8.076;2022-10-16T05:59:32;19.30;73.80
46366;DHT22;32073;49.166;8.076;2022-10-16T06:03:33;19.30;73.80
46366;DHT22;32073;49.166;8.076;2022-10-16T06:07:35;19.30;73.90
46366;DHT22;32073;49.166;8.076;2022-10-16T06:11:36;19.30;73.90
46366;DHT22;32073;49.166;8.076;2022-10-16T06:15:37;19.30;73.90
46366;DHT22;32073;49.166;8.076;2022-10-16T06:19:39;19.20;73.80
46366;DHT22;32073;49.166;8.076;2022-10-16T06:23:40;19.30;73.90
46366;DHT22;32073;49.166;8.076;2022-10-16T06:27:41;19.30;73.90
46366;DHT22;32073;49.166;8.076;2022-10-16T06:31:41;19.40;74.00
46366;DHT22;32073;49.166;8.076;2022-10-16T06:35:42;19.40;74.00
46366;DHT22;32073;49.166;8.076;2022-10-16T06:39:43;19.40;74.00
46366;DHT22;32073;49.166;8.076;2022-10-16T06:43:44;19.30;74.00
46366;DHT22;32073;49.166;8.076;2022-10-16T06:47:47;19.40;74.10
46366;DHT22;32073;49.166;8.076;2022-10-16T06:51:49;19.40;74.10
46366;DHT22;32073;49.166;8.076;2022-10-16T06:55:49;19.40;74.00
46366;DHT22;32073;49.166;8.076;2022-10-16T06:59:50;19.40;74.00
46366;DHT22;32073;49.166;8.076;2022-10-16T07:03:51;19.40;74.10
46366;DHT22;32073;49.166;8.076;2022-10-16T07:07:52;19.40;74.20
46366;DHT22;32073;49.166;8.076;2022-10-16T07:11:54;19.40;74.20
46366;DHT22;32073;49.166;8.076;2022-10-16T07:15:55;19.40;74.30
46366;DHT22;32073;49.166;8.076;2022-10-16T07:19:55;19.40;74.40
46366;DHT22;32073;49.166;8.076;2022-10-16T07:23:58;19.50;74.50
46366;DHT22;32073;49.166;8.076;2022-10-16T07:28:00;19.50;74.60
46366;DHT22;32073;49.166;8.076;2022-10-16T07:32:04;19.60;74.70
46366;DHT22;32073;49.166;8.076;2022-10-16T07:36:05;19.60;74.60
46366;DHT22;32073;49.166;8.076;2022-10-16T07:40:07;19.70;74.60
46366;DHT22;32073;49.166;8.076;2022-10-16T07:44:09;19.70;74.70
46366;DHT22;32073;49.166;8.076;2022-10-16T07:48:09;19.70;74.80
46366;DHT22;32073;49.166;8.076;2022-10-16T07:52:10;19.80;74.80
46366;DHT22;32073;49.166;8.076;2022-10-16T07:56:11;19.90;74.90
46366;DHT22;32073;49.166;8.076;2022-10-16T08:00:12;20.00;74.80
46366;DHT22;32073;49.166;8.076;2022-10-16T08:04:14;20.00;74.60
46366;DHT22;32073;49.166;8.076;2022-10-16T08:08:15;20.10;74.60
46366;DHT22;32073;49.166;8.076;2022-10-16T08:12:17;20.10;74.30
46366;DHT22;32073;49.166;8.076;2022-10-16T08:16:18;20.20;74.20
46366;DHT22;32073;49.166;8.076;2022-10-16T08:20:19;20.20;74.10
46366;DHT22;32073;49.166;8.076;2022-10-16T08:24:19;20.30;74.40
46366;DHT22;32073;49.166;8.076;2022-10-16T08:28:21;20.30;74.50
46366;DHT22;32073;49.166;8.076;2022-10-16T08:32:22;20.30;74.40
46366;DHT22;32073;49.166;8.076;2022-10-16T08:36:23;20.40;74.20
46366;DHT22;32073;49.166;8.076;2022-10-16T08:40:29;20.50;73.90
46366;DHT22;32073;49.166;8.076;2022-10-16T08:49:02;20.50;73.50
46366;DHT22;32073;49.166;8.076;2022-10-16T08:53:04;20.40;73.60
46366;DHT22;32073;49.166;8.076;2022-10-16T08:57:21;20.40;73.80
46366;DHT22;32073;49.166;8.076;2022-10-16T09:01:24;20.50;74.00
46366;DHT22;32073;49.166;8.076;2022-10-16T09:23:24;20.80;75.00
46366;DHT22;32073;49.166;8.076;2022-10-16T09:27:27;21.00;75.10
46366;DHT22;32073;49.166;8.076;2022-10-16T09:31:27;21.30;75.00
46366;DHT22;32073;49.166;8.076;2022-10-16T09:35:42;21.50;75.20
46366;DHT22;32073;49.166;8.076;2022-10-16T09:39:49;21.70;74.20
46366;DHT22;32073;49.166;8.076;2022-10-16T09:43:56;21.80;73.80
46366;DHT22;32073;49.166;8.076;2022-10-16T09:48:08;21.80;73.20
46366;DHT22;32073;49.166;8.076;2022-10-16T09:52:13;21.90;73.50
46366;DHT22;32073;49.166;8.076;2022-10-16T09:56:27;22.10;73.80
46366;DHT22;32073;49.166;8.076;2022-10-16T10:00:29;22.20;73.70
46366;DHT22;32073;49.166;8.076;2022-10-16T10:04:39;22.40;74.40
46366;DHT22;32073;49.166;8.076;2022-10-16T10:08:54;22.50;73.90
46366;DHT22;32073;49.166;8.076;2022-10-16T10:12:55;22.70;73.20
46366;DHT22;32073;49.166;8.076;2022-10-16T10:17:12;22.80;73.50
46366;DHT22;32073;49.166;8.076;2022-10-16T10:21:15;22.90;72.40
46366;DHT22;32073;49.166;8.076;2022-10-16T10:46:57;23.20;71.50
46366;DHT22;32073;49.166;8.076;2022-10-16T11:08:34;23.20;70.50
46366;DHT22;32073;49.166;8.076;2022-10-16T11:12:42;23.30;70.30
46366;DHT22;32073;49.166;8.076;2022-10-16T11:17:07;23.20;70.30
46366;DHT22;32073;49.166;8.076;2022-10-16T11:21:12;23.20;70.40
46366;DHT22;32073;49.166;8.076;2022-10-16T11:25:31;23.20;70.70
46366;DHT22;32073;49.166;8.076;2022-10-16T11:29:35;23.30;70.40
46366;DHT22;32073;49.166;8.076;2022-10-16T11:33:59;23.30;70.80
46366;DHT22;32073;49.166;8.076;2022-10-16T11:38:09;23.40;70.40
46366;DHT22;32073;49.166;8.076;2022-10-16T11:42:35;23.50;70.50
46366;DHT22;32073;49.166;8.076;2022-10-16T11:46:40;23.60;69.80
46366;DHT22;32073;49.166;8.076;2022-10-16T11:50:52;23.70;70.20
46366;DHT22;32073;49.166;8.076;2022-10-16T11:55:01;23.70;70.10
46366;DHT22;32073;49.166;8.076;2022-10-16T11:59:26;24.00;70.10
46366;DHT22;32073;49.166;8.076;2022-10-16T12:07:54;24.10;69.50
46366;DHT22;32073;49.166;8.076;2022-10-16T12:12:37;24.10;69.30
46366;DHT22;32073;49.166;8.076;2022-10-16T12:17:00;24.30;69.10
46366;DHT22;32073;49.166;8.076;2022-10-16T12:21:05;24.40;68.60
46366;DHT22;32073;49.166;8.076;2022-10-16T12:25:27;24.40;68.80
46366;DHT22;32073;49.166;8.076;2022-10-16T12:29:39;24.50;68.10
46366;DHT22;32073;49.166;8.076;2022-10-16T12:33:59;24.50;67.60
46366;DHT22;32073;49.166;8.076;2022-10-16T12:38:16;24.50;67.30
46366;DHT22;32073;49.166;8.076;2022-10-16T12:42:37;24.50;67.40
46366;DHT22;32073;49.166;8.076;2022-10-16T12:46:39;24.40;67.30
46366;DHT22;32073;49.166;8.076;2022-10-16T12:50:40;24.40;67.40
46366;DHT22;32073;49.166;8.076;2022-10-16T12:54:41;24.30;67.40
46366;DHT22;32073;49.166;8.076;2022-10-16T13:16:44;24.00;66.00
46366;DHT22;32073;49.166;8.076;2022-10-16T13:21:14;23.80;66.30
46366;DHT22;32073;49.166;8.076;2022-10-16T13:29:33;23.70;66.50
46366;DHT22;32073;49.166;8.076;2022-10-16T13:33:41;23.60;66.70
46366;DHT22;32073;49.166;8.076;2022-10-16T13:37:42;23.60;66.70
46366;DHT22;32073;49.166;8.076;2022-10-16T13:41:43;23.60;67.10
46366;DHT22;32073;49.166;8.076;2022-10-16T13:45:56;23.50;67.00
46366;DHT22;32073;49.166;8.076;2022-10-16T13:50:05;23.50;66.90
46366;DHT22;32073;49.166;8.076;2022-10-16T13:54:11;23.40;67.20
46366;DHT22;32073;49.166;8.076;2022-10-16T13:58:13;23.40;67.30
46366;DHT22;32073;49.166;8.076;2022-10-16T14:02:35;23.40;67.20
46366;DHT22;32073;49.166;8.076;2022-10-16T14:06:44;23.40;66.90
46366;DHT22;32073;49.166;8.076;2022-10-16T14:10:51;23.40;67.10
46366;DHT22;32073;49.166;8.076;2022-10-16T14:14:55;23.30;67.80
46366;DHT22;32073;49.166;8.076;2022-10-16T14:19:00;23.40;67.40
46366;DHT22;32073;49.166;8.076;2022-10-16T14:23:16;23.40;67.50
46366;DHT22;32073;49.166;8.076;2022-10-16T14:27:34;23.40;67.20
46366;DHT22;32073;49.166;8.076;2022-10-16T14:31:35;23.50;66.90
46366;DHT22;32073;49.166;8.076;2022-10-16T14:35:38;23.50;67.20
46366;DHT22;32073;49.166;8.076;2022-10-16T14:39:40;23.60;66.70
46366;DHT22;32073;49.166;8.076;2022-10-16T14:43:42;23.70;66.60
46366;DHT22;32073;49.166;8.076;2022-10-16T14:47:53;23.70;66.40
46366;DHT22;32073;49.166;8.076;2022-10-16T14:51:55;23.70;65.70
46366;DHT22;32073;49.166;8.076;2022-10-16T14:55:56;23.60;65.80
46366;DHT22;32073;49.166;8.076;2022-10-16T14:59:56;23.80;65.80
46366;DHT22;32073;49.166;8.076;2022-10-16T15:03:57;23.70;65.70
46366;DHT22;32073;49.166;8.076;2022-10-16T15:07:58;23.60;65.70
46366;DHT22;32073;49.166;8.076;2022-10-16T15:11:58;23.70;65.80
46366;DHT22;32073;49.166;8.076;2022-10-16T15:15:59;23.60;66.00
46366;DHT22;32073;49.166;8.076;2022-10-16T15:19:59;23.60;66.20
46366;DHT22;32073;49.166;8.076;2022-10-16T15:24:00;23.60;66.20
46366;DHT22;32073;49.166;8.076;2022-10-16T15:28:02;23.60;66.30
46366;DHT22;32073;49.166;8.076;2022-10-16T15:32:04;23.60;66.30
46366;DHT22;32073;49.166;8.076;2022-10-16T15:36:05;23.60;66.40
46366;DHT22;32073;49.166;8.076;2022-10-16T15:40:06;23.60;66.40
46366;DHT22;32073;49.166;8.076;2022-10-16T15:44:08;23.60;66.20
46366;DHT22;32073;49.166;8.076;2022-10-16T15:48:13;23.80;66.20
46366;DHT22;32073;49.166;8.076;2022-10-16T15:52:13;23.70;65.50
46366;DHT22;32073;49.166;8.076;2022-10-16T15:56:14;23.60;65.70
46366;DHT22;32073;49.166;8.076;2022-10-16T16:00:18;23.60;65.50
46366;DHT22;32073;49.166;8.076;2022-10-16T16:04:23;23.60;65.30
46366;DHT22;32073;49.166;8.076;2022-10-16T16:08:23;23.50;65.40
46366;DHT22;32073;49.166;8.076;2022-10-16T16:12:24;23.40;65.30
46366;DHT22;32073;49.166;8.076;2022-10-16T16:16:25;23.40;65.30
46366;DHT22;32073;49.166;8.076;2022-10-16T16:20:25;23.30;65.30
46366;DHT22;32073;49.166;8.076;2022-10-16T16:24:26;23.10;65.10
46366;DHT22;32073;49.166;8.076;2022-10-16T16:28:28;23.10;65.20
46366;DHT22;32073;49.166;8.076;2022-10-16T16:32:29;23.00;65.30
46366;DHT22;32073;49.166;8.076;2022-10-16T16:36:30;22.80;65.30
46366;DHT22;32073;49.166;8.076;2022-10-16T16:40:31;22.70;65.40
46366;DHT22;32073;49.166;8.076;2022-10-16T16:44:32;22.60;65.50
46366;DHT22;32073;49.166;8.076;2022-10-16T16:48:34;22.50;65.50
46366;DHT22;32073;49.166;8.076;2022-10-16T16:52:35;22.40;65.50
46366;DHT22;32073;49.166;8.076;2022-10-16T16:56:36;22.30;65.50
46366;DHT22;32073;49.166;8.076;2022-10-16T17:00:36;22.10;65.60
46366;DHT22;32073;49.166;8.076;2022-10-16T17:04:37;22.10;65.60
46366;DHT22;32073;49.166;8.076;2022-10-16T17:08:38;22.00;65.60
46366;DHT22;32073;49.166;8.076;2022-10-16T17:12:39;21.80;65.50
46366;DHT22;32073;49.166;8.076;2022-10-16T17:16:40;21.80;66.10
46366;DHT22;32073;49.166;8.076;2022-10-16T17:20:44;21.70;65.50
46366;DHT22;32073;49.166;8.076;2022-10-16T17:24:48;21.60;65.50
46366;DHT22;32073;49.166;8.076;2022-10-16T17:28:54;21.50;65.40
46366;DHT22;32073;49.166;8.076;2022-10-16T17:32:56;21.30;65.20
46366;DHT22;32073;49.166;8.076;2022-10-16T17:36:57;21.30;65.40
46366;DHT22;32073;49.166;8.076;2022-10-16T17:40:58;21.10;65.40
46366;DHT22;32073;49.166;8.076;2022-10-16T17:44:58;21.00;65.30
46366;DHT22;32073;49.166;8.076;2022-10-16T17:48:59;21.00;65.40
46366;DHT22;32073;49.166;8.076;2022-10-16T17:53:00;20.80;65.40
46366;DHT22;32073;49.166;8.076;2022-10-16T17:57:00;20.80;65.60
46366;DHT22;32073;49.166;8.076;2022-10-16T18:01:10;20.70;65.70
46366;DHT22;32073;49.166;8.076;2022-10-16T18:05:16;20.70;65.90
46366;DHT22;32073;49.166;8.076;2022-10-16T18:09:18;20.60;66.10
46366;DHT22;32073;49.166;8.076;2022-10-16T18:13:20;20.60;66.30
46366;DHT22;32073;49.166;8.076;2022-10-16T18:17:20;20.60;66.40
46366;DHT22;32073;49.166;8.076;2022-10-16T18:21:22;20.60;66.80
46366;DHT22;32073;49.166;8.076;2022-10-16T18:25:23;20.40;66.80
46366;DHT22;32073;49.166;8.076;2022-10-16T18:29:25;20.40;66.90
46366;DHT22;32073;49.166;8.076;2022-10-16T18:33:27;20.50;67.10
46366;DHT22;32073;49.166;8.076;2022-10-16T18:37:30;20.40;67.30
46366;DHT22;32073;49.166;8.076;2022-10-16T18:41:31;20.40;67.50
46366;DHT22;32073;49.166;8.076;2022-10-16T18:45:32;20.40;67.60
46366;DHT22;32073;49.166;8.076;2022-10-16T18:49:32;20.50;67.60
46366;DHT22;32073;49.166;8.076;2022-10-16T18:53:33;20.40;67.60
46366;DHT22;32073;49.166;8.076;2022-10-16T18:57:34;20.40;67.60
46366;DHT22;32073;49.166;8.076;2022-10-16T19:01:36;20.40;67.60
46366;DHT22;32073;49.166;8.076;2022-10-16T19:05:38;20.30;67.50
46366;DHT22;32073;49.166;8.076;2022-10-16T19:09:38;20.30;67.50
46366;DHT22;32073;49.166;8.076;2022-10-16T19:13:40;20.20;67.40
46366;DHT22;32073;49.166;8.076;2022-10-16T19:17:41;20.30;67.40
46366;DHT22;32073;49.166;8.076;2022-10-16T19:21:42;20.20;67.40
46366;DHT22;32073;49.166;8.076;2022-10-16T19:25:43;20.30;67.40
46366;DHT22;32073;49.166;8.076;2022-10-16T19:29:43;20.20;67.40
46366;DHT22;32073;49.166;8.076;2022-10-16T19:33:45;20.10;67.40
46366;DHT22;32073;49.166;8.076;2022-10-16T19:37:49;20.10;67.40
46366;DHT22;32073;49.166;8.076;2022-10-16T19:41:50;20.00;67.40
46366;DHT22;32073;49.166;8.076;2022-10-16T19:45:51;20.00;67.30
46366;DHT22;32073;49.166;8.076;2022-10-16T19:49:52;20.00;67.30
46366;DHT22;32073;49.166;8.076;2022-10-16T19:53:58;20.00;67.30
46366;DHT22;32073;49.166;8.076;2022-10-16T19:58:00;20.00;67.30
46366;DHT22;32073;49.166;8.076;2022-10-16T20:02:01;19.90;67.20
46366;DHT22;32073;49.166;8.076;2022-10-16T20:06:02;19.80;67.10
46366;DHT22;32073;49.166;8.076;2022-10-16T20:10:06;19.80;67.20
46366;DHT22;32073;49.166;8.076;2022-10-16T20:14:07;19.70;67.20
46366;DHT22;32073;49.166;8.076;2022-10-16T20:18:08;19.70;67.30
46366;DHT22;32073;49.166;8.076;2022-10-16T20:22:09;19.70;67.30
46366;DHT22;32073;49.166;8.076;2022-10-16T20:26:10;19.70;67.30
46366;DHT22;32073;49.166;8.076;2022-10-16T20:30:10;19.60;67.50
46366;DHT22;32073;49.166;8.076;2022-10-16T20:34:12;19.60;67.60
46366;DHT22;32073;49.166;8.076;2022-10-16T20:38:13;19.50;67.70
46366;DHT22;32073;49.166;8.076;2022-10-16T20:42:15;19.50;67.80
46366;DHT22;32073;49.166;8.076;2022-10-16T20:46:20;19.50;67.90
46366;DHT22;32073;49.166;8.076;2022-10-16T20:50:23;19.50;68.00
46366;DHT22;32073;49.166;8.076;2022-10-16T20:54:24;19.40;68.00
46366;DHT22;32073;49.166;8.076;2022-10-16T20:58:25;19.40;68.10
46366;DHT22;32073;49.166;8.076;2022-10-16T21:02:26;19.40;68.20
46366;DHT22;32073;49.166;8.076;2022-10-16T21:06:28;19.30;68.20
46366;DHT22;32073;49.166;8.076;2022-10-16T21:10:30;19.40;68.30
46366;DHT22;32073;49.166;8.076;2022-10-16T21:14:31;19.30;68.30
46366;DHT22;32073;49.166;8.076;2022-10-16T21:18:32;19.30;68.20
46366;DHT22;32073;49.166;8.076;2022-10-16T21:22:33;19.20;68.10
46366;DHT22;32073;49.166;8.076;2022-10-16T21:26:34;19.20;68.60
46366;DHT22;32073;49.166;8.076;2022-10-16T21:30:34;19.20;68.20
46366;DHT22;32073;49.166;8.076;2022-10-16T21:34:35;19.10;68.20
46366;DHT22;32073;49.166;8.076;2022-10-16T21:38:36;19.00;68.20
46366;DHT22;32073;49.166;8.076;2022-10-16T21:42:36;19.10;68.40
46366;DHT22;32073;49.166;8.076;2022-10-16T21:46:39;18.90;68.20
46366;DHT22;32073;49.166;8.076;2022-10-16T21:50:47;18.90;68.40
46366;DHT22;32073;49.166;8.076;2022-10-16T21:54:47;18.90;68.60
46366;DHT22;32073;49.166;8.076;2022-10-16T21:58:48;18.80;68.30
46366;DHT22;32073;49.166;8.076;2022-10-16T22:02:49;18.80;68.40
46366;DHT22;32073;49.166;8.076;2022-10-16T22:06:50;18.80;68.30
46366;DHT22;32073;49.166;8.076;2022-10-16T22:10:51;18.70;68.30
46366;DHT22;32073;49.166;8.076;2022-10-16T22:14:51;18.70;68.30
46366;DHT22;32073;49.166;8.076;2022-10-16T22:18:54;18.70;68.40
46366;DHT22;32073;49.166;8.076;2022-10-16T22:22:55;18.60;68.40
46366;DHT22;32073;49.166;8.076;2022-10-16T22:26:56;18.60;68.40
46366;DHT22;32073;49.166;8.076;2022-10-16T22:31:00;18.60;68.40
46366;DHT22;32073;49.166;8.076;2022-10-16T22:35:01;18.50;68.50
46366;DHT22;32073;49.166;8.076;2022-10-16T22:39:02;18.50;68.40
46366;DHT22;32073;49.166;8.076;2022-10-16T22:43:04;18.50;68.50
46366;DHT22;32073;49.166;8.076;2022-10-16T22:47:05;18.40;68.70
46366;DHT22;32073;49.166;8.076;2022-10-16T22:51:06;18.40;68.70
46366;DHT22;32073;49.166;8.076;2022-10-16T22:55:08;18.40;68.70
46366;DHT22;32073;49.166;8.076;2022-10-16T22:59:09;18.40;68.70
46366;DHT22;32073;49.166;8.076;2022-10-16T23:03:10;18.30;68.80
46366;DHT22;32073;49.166;8.076;2022-10-16T23:07:11;18.30;68.90
46366;DHT22;32073;49.166;8.076;2022-10-16T23:11:12;18.30;69.00
46366;DHT22;32073;49.166;8.076;2022-10-16T23:15:13;18.30;68.90
46366;DHT22;32073;49.166;8.076;2022-10-16T23:19:13;18.30;69.00
46366;DHT22;32073;49.166;8.076;2022-10-16T23:23:14;18.20;68.90
46366;DHT22;32073;49.166;8.076;2022-10-16T23:27:15;18.20;68.90
46366;DHT22;32073;49.166;8.076;2022-10-16T23:31:16;18.20;69.00
46366;DHT22;32073;49.166;8.076;2022-10-16T23:35:18;18.20;68.90
46366;DHT22;32073;49.166;8.076;2022-10-16T23:39:18;18.20;69.40
46366;DHT22;32073;49.166;8.076;2022-10-16T23:43:19;18.20;68.90
46366;DHT22;32073;49.166;8.076;2022-10-16T23:47:20;18.10;68.70
46366;DHT22;32073;49.166;8.076;2022-10-16T23:51:20;18.10;68.70
46366;DHT22;32073;49.166;8.076;2022-10-16T23:55:21;18.10;69.20
46366;DHT22;32073;49.166;8.076;2022-10-16T23:59:22;18.10;68.60
